createdAt,value
2023-02-09T00:02:27.979Z,-9.10
2023-02-09T00:05:03.009Z,-9.20
2023-02-09T00:07:36.594Z,-9.20
2023-02-09T00:10:10.765Z,-9.20
2023-02-09T00:13:01.627Z,-9.30
2023-02-09T00:15:35.124Z,-9.30
2023-02-09T00:18:08.716Z,-9.50
2023-02-09T00:20:43.987Z,-9.60
2023-02-09T00:23:17.801Z,-9.60
2023-02-09T00:25:51.648Z,-9.60
2023-02-09T00:28:25.272Z,-9.60
2023-02-09T00:30:58.919Z,-9.60
2023-02-09T00:33:32.577Z,-9.60
2023-02-09T00:36:09.301Z,-9.60
2023-02-09T00:38:43.422Z,-9.70
2023-02-09T00:41:17.941Z,-9.70
2023-02-09T00:43:52.032Z,-9.80
2023-02-09T00:46:27.417Z,-9.90
2023-02-09T00:49:01.060Z,-9.90
2023-02-09T00:51:36.186Z,-9.90
2023-02-09T00:54:09.828Z,-9.90
2023-02-09T00:56:43.454Z,-10.00
2023-02-09T00:59:17.028Z,-10.00
2023-02-09T01:01:50.834Z,-10.00
2023-02-09T01:04:24.386Z,-10.00
2023-02-09T01:06:59.325Z,-10.10
2023-02-09T01:09:32.895Z,-10.00
2023-02-09T01:12:06.837Z,-10.10
2023-02-09T01:14:40.589Z,-10.10
2023-02-09T01:17:14.550Z,-10.10
2023-02-09T01:19:53.210Z,-10.20
2023-02-09T01:22:28.517Z,-10.20
2023-02-09T01:25:02.123Z,-10.20
2023-02-09T01:27:35.724Z,-10.30
2023-02-09T01:30:10.399Z,-10.40
2023-02-09T01:32:43.945Z,-10.50
2023-02-09T01:35:18.224Z,-10.50
2023-02-09T01:37:53.160Z,-10.60
2023-02-09T01:40:26.632Z,-10.60
2023-02-09T01:43:00.173Z,-10.60
2023-02-09T01:45:43.161Z,-10.60
2023-02-09T01:48:17.285Z,-10.60
2023-02-09T01:50:53.838Z,-10.60
2023-02-09T01:53:29.483Z,-10.50
2023-02-09T01:56:05.780Z,-10.60
2023-02-09T01:58:40.500Z,-10.60
2023-02-09T02:01:14.620Z,-10.60
2023-02-09T02:03:48.157Z,-10.60
2023-02-09T02:06:21.877Z,-10.70
2023-02-09T02:09:00.248Z,-10.80
2023-02-09T02:11:34.248Z,-10.80
2023-02-09T02:14:07.906Z,-10.90
2023-02-09T02:16:49.621Z,-10.90
2023-02-09T02:19:58.996Z,-11.00
2023-02-09T02:22:55.806Z,-11.00
2023-02-09T02:25:56.127Z,-11.00
2023-02-09T02:28:42.041Z,-11.00
2023-02-09T02:31:56.215Z,-11.10
2023-02-09T02:34:37.206Z,-11.10
2023-02-09T02:37:19.834Z,-11.10
2023-02-09T02:40:00.707Z,-11.10
2023-02-09T02:42:52.059Z,-11.20
2023-02-09T02:45:34.852Z,-11.20
2023-02-09T02:48:24.045Z,-11.20
2023-02-09T02:51:01.933Z,-11.10
2023-02-09T02:53:38.833Z,-11.10
2023-02-09T02:56:16.646Z,-11.20
2023-02-09T02:58:53.255Z,-11.30
2023-02-09T03:01:30.993Z,-11.40
2023-02-09T03:04:08.419Z,-11.50
2023-02-09T03:06:42.114Z,-11.60
2023-02-09T03:09:18.519Z,-11.60
2023-02-09T03:11:56.226Z,-11.60
2023-02-09T03:14:43.245Z,-11.60
2023-02-09T03:17:32.712Z,-11.60
2023-02-09T03:20:12.095Z,-11.60
2023-02-09T03:22:50.001Z,-11.60
2023-02-09T03:25:28.755Z,-11.60
2023-02-09T03:28:07.716Z,-11.50
2023-02-09T03:30:42.591Z,-11.60
2023-02-09T03:33:21.717Z,-11.60
2023-02-09T03:35:59.106Z,-11.60
2023-02-09T03:38:32.658Z,-11.60
2023-02-09T03:41:08.011Z,-11.60
2023-02-09T03:43:59.112Z,-11.60
2023-02-09T03:46:33.644Z,-11.70
2023-02-09T03:49:07.266Z,-11.70
2023-02-09T03:51:42.675Z,-11.70
2023-02-09T03:54:16.447Z,-11.70
2023-02-09T03:56:50.188Z,-11.70
2023-02-09T03:59:25.355Z,-11.80
2023-02-09T04:01:59.856Z,-11.80
2023-02-09T04:04:33.814Z,-11.80
2023-02-09T04:07:08.849Z,-11.80
2023-02-09T04:09:43.774Z,-11.90
2023-02-09T04:12:17.564Z,-11.90
2023-02-09T04:14:51.273Z,-12.00
2023-02-09T04:17:24.924Z,-12.00
2023-02-09T04:19:58.514Z,-12.10
2023-02-09T04:22:33.573Z,-12.10
2023-02-09T04:25:07.968Z,-12.10
2023-02-09T04:27:41.556Z,-12.10
2023-02-09T04:30:15.547Z,-12.20
2023-02-09T04:32:49.130Z,-12.20
2023-02-09T04:35:22.918Z,-12.20
2023-02-09T04:37:57.901Z,-12.20
2023-02-09T04:40:31.439Z,-12.30
2023-02-09T04:43:05.042Z,-12.30
2023-02-09T04:45:39.920Z,-12.40
2023-02-09T04:48:15.498Z,-12.40
2023-02-09T04:50:49.565Z,-12.40
2023-02-09T04:53:25.899Z,-12.40
2023-02-09T04:55:59.395Z,-12.40
2023-02-09T04:58:50.295Z,-12.40
2023-02-09T05:01:25.563Z,-12.40
2023-02-09T05:03:59.199Z,-12.50
2023-02-09T05:06:32.796Z,-12.50
2023-02-09T05:09:07.681Z,-12.60
2023-02-09T05:11:41.180Z,-12.60
2023-02-09T05:14:14.796Z,-12.70
2023-02-09T05:16:48.385Z,-12.70
2023-02-09T05:19:21.970Z,-12.70
2023-02-09T05:21:55.522Z,-12.70
2023-02-09T05:24:30.718Z,-12.70
2023-02-09T05:27:04.413Z,-12.80
2023-02-09T05:29:38.058Z,-12.80
2023-02-09T05:32:11.805Z,-12.80
2023-02-09T05:34:45.457Z,-12.80
2023-02-09T05:37:19.083Z,-12.90
2023-02-09T05:39:54.249Z,-12.90
2023-02-09T05:42:28.141Z,-12.90
2023-02-09T05:45:01.703Z,-12.90
2023-02-09T05:47:35.578Z,-12.90
2023-02-09T05:50:09.510Z,-12.90
2023-02-09T05:52:43.119Z,-12.90
2023-02-09T05:55:18.286Z,-12.90
2023-02-09T05:57:51.795Z,-12.90
2023-02-09T06:00:27.166Z,-12.90
2023-02-09T06:03:00.861Z,-13.00
2023-02-09T06:05:34.426Z,-13.00
2023-02-09T06:08:07.873Z,-13.00
2023-02-09T06:10:42.693Z,-13.00
2023-02-09T06:13:16.529Z,-13.00
2023-02-09T06:15:50.208Z,-13.00
2023-02-09T06:18:23.795Z,-13.00
2023-02-09T06:20:57.299Z,-13.00
2023-02-09T06:23:30.805Z,-13.00
2023-02-09T06:26:09.680Z,-13.00
2023-02-09T06:28:43.532Z,-13.00
2023-02-09T06:31:17.209Z,-13.00
2023-02-09T06:33:50.862Z,-13.00
2023-02-09T06:36:24.461Z,-13.00
2023-02-09T06:38:57.980Z,-13.10
2023-02-09T06:41:32.986Z,-13.00
2023-02-09T06:44:07.052Z,-13.00
2023-02-09T06:46:40.674Z,-13.00
2023-02-09T06:49:14.181Z,-13.00
2023-02-09T06:51:47.768Z,-13.00
2023-02-09T06:54:21.405Z,-13.00
2023-02-09T06:56:56.692Z,-13.00
2023-02-09T06:59:30.360Z,-13.00
2023-02-09T07:02:04.408Z,-12.90
2023-02-09T07:04:38.081Z,-12.90
2023-02-09T07:07:11.574Z,-12.90
2023-02-09T07:09:45.057Z,-12.80
2023-02-09T07:12:20.131Z,-12.80
2023-02-09T07:14:54.226Z,-12.70
2023-02-09T07:17:29.713Z,-12.70
2023-02-09T07:20:03.831Z,-12.70
2023-02-09T07:22:37.844Z,-12.60
2023-02-09T07:25:11.657Z,-12.60
2023-02-09T07:27:47.076Z,-12.60
2023-02-09T07:30:20.999Z,-12.60
2023-02-09T07:32:54.502Z,-12.50
2023-02-09T07:35:28.149Z,-12.50
2023-02-09T07:38:01.680Z,-12.40
2023-02-09T07:40:35.317Z,-12.30
2023-02-09T07:43:10.385Z,-12.30
2023-02-09T07:45:44.345Z,-12.30
2023-02-09T07:48:18.184Z,-12.20
2023-02-09T07:50:52.239Z,-12.20
2023-02-09T07:53:26.365Z,-12.10
2023-02-09T07:56:00.194Z,-12.00
2023-02-09T07:58:35.389Z,-12.00
2023-02-09T08:01:12.022Z,-11.90
2023-02-09T08:03:48.340Z,-11.90
2023-02-09T08:06:40.665Z,-11.80
2023-02-09T08:09:17.454Z,-11.80
2023-02-09T08:11:55.432Z,-11.70
2023-02-09T08:14:36.047Z,-11.60
2023-02-09T08:17:24.351Z,-11.40
2023-02-09T08:20:03.313Z,-11.30
2023-02-09T08:22:41.449Z,-11.20
2023-02-09T08:25:17.525Z,-11.10
2023-02-09T08:27:52.352Z,-10.90
2023-02-09T08:30:27.431Z,-10.80
2023-02-09T08:33:01.010Z,-10.60
2023-02-09T08:35:34.580Z,-10.50
2023-02-09T08:38:08.220Z,-10.20
2023-02-09T08:40:44.142Z,-10.00
2023-02-09T08:43:18.180Z,-9.70
2023-02-09T08:45:53.374Z,-9.30
2023-02-09T08:48:26.926Z,-8.90
2023-02-09T08:51:00.744Z,-8.50
2023-02-09T08:53:34.273Z,-8.00
2023-02-09T08:56:08.862Z,-7.60
2023-02-09T08:58:42.483Z,-7.20
2023-02-09T09:01:17.568Z,-6.90
2023-02-09T09:03:51.246Z,-6.60
2023-02-09T09:06:24.834Z,-6.40
2023-02-09T09:08:58.354Z,-6.10
2023-02-09T09:11:31.857Z,-5.70
2023-02-09T09:14:05.411Z,-5.40
2023-02-09T09:16:40.405Z,-5.10
2023-02-09T09:19:15.755Z,-4.70
2023-02-09T09:21:49.820Z,-4.50
2023-02-09T09:24:28.121Z,-4.20
2023-02-09T09:27:01.693Z,-4.00
2023-02-09T09:29:35.538Z,-3.80
2023-02-09T09:32:13.987Z,-3.60
2023-02-09T09:34:47.788Z,-3.40
2023-02-09T09:37:21.780Z,-3.30
2023-02-09T09:39:56.226Z,-3.10
2023-02-09T09:42:36.734Z,-3.00
2023-02-09T09:45:16.308Z,-2.80
2023-02-09T09:47:57.243Z,-2.70
2023-02-09T09:50:39.786Z,-2.50
2023-02-09T09:54:00.946Z,-2.40
2023-02-09T09:56:35.380Z,-2.40
2023-02-09T09:59:18.358Z,-2.30
2023-02-09T10:01:53.416Z,-2.20
2023-02-09T10:04:30.821Z,-2.10
2023-02-09T10:07:14.537Z,-1.90
2023-02-09T10:23:44.953Z,-1.40
2023-02-09T10:26:23.562Z,-1.20
2023-02-09T10:28:59.451Z,-1.00
2023-02-09T10:31:35.181Z,-0.80
2023-02-09T10:34:17.645Z,-0.60
2023-02-09T10:36:53.781Z,-0.40
2023-02-09T10:39:57.460Z,-0.40
2023-02-09T10:42:40.613Z,-0.10
2023-02-09T10:45:23.071Z,0.00
2023-02-09T10:48:03.012Z,0.10
2023-02-09T10:50:52.004Z,0.20
2023-02-09T10:53:30.230Z,0.20
2023-02-09T10:56:13.737Z,0.20
2023-02-09T10:58:52.620Z,0.20
2023-02-09T11:01:29.878Z,0.10
2023-02-09T11:04:06.920Z,0.10
2023-02-09T11:06:49.681Z,0.10
2023-02-09T11:09:28.148Z,0.00
2023-02-09T11:12:03.990Z,-0.10
2023-02-09T11:14:37.659Z,0.00
2023-02-09T11:17:21.616Z,0.00
2023-02-09T11:20:20.978Z,0.10
2023-02-09T11:23:21.949Z,0.20
2023-02-09T11:25:59.591Z,0.30
2023-02-09T11:28:43.581Z,0.40
2023-02-09T11:31:55.924Z,0.40
2023-02-09T11:34:44.037Z,0.40
2023-02-09T11:37:27.405Z,0.50
2023-02-09T11:40:08.999Z,0.50
2023-02-09T11:42:49.465Z,0.40
2023-02-09T11:45:31.429Z,0.50
2023-02-09T11:48:13.017Z,0.40
2023-02-09T11:50:57.984Z,0.40
2023-02-09T11:53:39.573Z,0.60
2023-02-09T11:56:15.749Z,0.80
2023-02-09T11:58:56.073Z,1.00
2023-02-09T12:01:41.312Z,1.30
2023-02-09T12:04:19.991Z,1.60
2023-02-09T12:06:56.490Z,1.90
2023-02-09T12:10:07.796Z,2.10
2023-02-09T12:12:50.171Z,2.40
2023-02-09T12:15:27.918Z,2.60
2023-02-09T12:18:07.000Z,2.70
2023-02-09T12:20:52.872Z,2.70
2023-02-09T12:23:32.748Z,2.70
2023-02-09T12:26:28.703Z,2.80
2023-02-09T12:29:23.189Z,3.00
2023-02-09T12:32:43.419Z,3.30
2023-02-09T12:35:29.450Z,3.60
2023-02-09T12:38:18.510Z,3.90
2023-02-09T12:41:04.339Z,4.20
2023-02-09T12:43:38.707Z,4.50
2023-02-09T12:46:26.625Z,4.70
2023-02-09T12:49:21.262Z,5.10
2023-02-09T12:52:17.559Z,5.30
2023-02-09T12:54:53.423Z,5.40
2023-02-09T12:57:56.914Z,5.70
2023-02-09T13:00:55.909Z,6.00
2023-02-09T13:03:30.710Z,6.30
2023-02-09T13:06:11.454Z,6.60
2023-02-09T13:08:53.306Z,6.60
2023-02-09T13:11:34.207Z,6.80
2023-02-09T13:14:10.461Z,6.90
2023-02-09T13:17:07.857Z,7.00
2023-02-09T13:20:05.936Z,7.00
2023-02-09T13:22:58.634Z,7.10
2023-02-09T13:25:36.883Z,7.20
2023-02-09T13:28:17.303Z,7.30
2023-02-09T13:30:50.991Z,7.50
2023-02-09T13:33:41.690Z,7.30
2023-02-09T13:36:27.226Z,7.40
2023-02-09T13:39:00.884Z,7.40
2023-02-09T13:41:40.790Z,7.20
2023-02-09T13:44:23.305Z,7.20
2023-02-09T13:46:58.552Z,7.00
2023-02-09T13:49:32.175Z,7.10
2023-02-09T13:52:14.123Z,7.20
2023-02-09T13:54:47.812Z,7.00
2023-02-09T13:57:32.110Z,7.00
2023-02-09T14:00:17.080Z,7.00
2023-02-09T14:02:56.545Z,6.80
2023-02-09T14:05:39.550Z,6.70
2023-02-09T14:08:16.047Z,6.60
2023-02-09T14:10:54.486Z,6.50
2023-02-09T14:13:35.155Z,6.40
2023-02-09T14:16:09.527Z,6.20
2023-02-09T14:18:49.434Z,6.10
2023-02-09T14:21:37.353Z,5.80
2023-02-09T14:24:18.883Z,5.80
2023-02-09T14:26:55.292Z,5.80
2023-02-09T14:29:31.990Z,5.70
2023-02-09T14:32:32.298Z,5.80
2023-02-09T14:35:21.804Z,5.70
2023-02-09T14:37:57.342Z,5.70
2023-02-09T14:40:34.340Z,5.70
2023-02-09T14:43:24.942Z,5.60
2023-02-09T14:46:02.178Z,5.50
2023-02-09T14:48:35.912Z,5.30
2023-02-09T14:51:15.920Z,5.10
2023-02-09T14:53:50.181Z,4.90
2023-02-09T14:56:28.521Z,4.60
2023-02-09T14:59:02.130Z,4.30
2023-02-09T15:01:37.146Z,4.20
2023-02-09T15:04:10.860Z,4.00
2023-02-09T15:06:45.998Z,3.80
2023-02-09T15:09:23.471Z,3.70
2023-02-09T15:12:05.986Z,3.50
2023-02-09T15:14:43.240Z,3.40
2023-02-09T15:17:21.040Z,3.30
2023-02-09T15:19:54.915Z,3.10
2023-02-09T15:22:28.474Z,3.00
2023-02-09T15:25:01.928Z,2.80
2023-02-09T15:27:37.759Z,2.60
2023-02-09T15:30:17.978Z,2.40
2023-02-09T15:32:53.549Z,2.20
2023-02-09T15:35:28.974Z,2.00
2023-02-09T15:38:03.287Z,1.80
2023-02-09T15:40:58.815Z,1.70
2023-02-09T15:43:49.916Z,1.50
2023-02-09T15:46:40.668Z,1.30
2023-02-09T15:49:15.588Z,1.10
2023-02-09T15:51:49.158Z,0.90
2023-02-09T15:54:27.897Z,0.70
2023-02-09T15:57:02.327Z,0.60
2023-02-09T15:59:35.971Z,0.50
2023-02-09T16:02:13.794Z,0.40
2023-02-09T16:04:49.195Z,0.20
2023-02-09T16:07:26.141Z,0.10
2023-02-09T16:09:59.683Z,-0.10
2023-02-09T16:12:33.309Z,-0.30
2023-02-09T16:15:14.675Z,-0.50
2023-02-09T16:17:48.201Z,-0.70
2023-02-09T16:20:25.613Z,-0.90
2023-02-09T16:23:11.735Z,-1.10
2023-02-09T16:25:50.029Z,-1.20
2023-02-09T16:28:23.861Z,-1.40
2023-02-09T16:30:59.226Z,-1.50
2023-02-09T16:33:32.839Z,-1.60
2023-02-09T16:36:14.837Z,-1.70
2023-02-09T16:38:48.596Z,-1.80
2023-02-09T16:41:39.362Z,-1.90
2023-02-09T16:44:17.621Z,-2.10
2023-02-09T16:46:53.600Z,-2.20
2023-02-09T16:49:36.161Z,-2.20
2023-02-09T16:52:17.368Z,-2.30
2023-02-09T16:54:53.352Z,-2.40
2023-02-09T16:57:28.888Z,-2.50
2023-02-09T17:00:02.406Z,-2.50
2023-02-09T17:02:39.672Z,-2.60
2023-02-09T17:05:19.184Z,-2.70
2023-02-09T17:07:57.334Z,-2.80
2023-02-09T17:10:36.092Z,-3.00
2023-02-09T17:13:09.651Z,-3.10
2023-02-09T17:15:46.089Z,-3.20
2023-02-09T17:18:22.796Z,-3.30
2023-02-09T17:20:58.676Z,-3.30
2023-02-09T17:23:33.766Z,-3.40
2023-02-09T17:26:07.390Z,-3.50
2023-02-09T17:28:42.978Z,-3.60
2023-02-09T17:31:19.736Z,-3.60
2023-02-09T17:33:55.318Z,-3.70
2023-02-09T17:36:30.681Z,-3.80
2023-02-09T17:39:06.370Z,-3.90
2023-02-09T17:41:44.904Z,-3.90
2023-02-09T17:44:34.896Z,-4.00
2023-02-09T17:47:17.589Z,-4.00
2023-02-09T17:49:51.668Z,-4.10
2023-02-09T17:52:25.378Z,-4.20
2023-02-09T17:55:00.471Z,-4.30
2023-02-09T17:57:34.028Z,-4.30
2023-02-09T18:00:08.659Z,-4.40
2023-02-09T18:02:42.764Z,-4.50
2023-02-09T18:05:21.498Z,-4.60
2023-02-09T18:07:55.598Z,-4.70
2023-02-09T18:10:31.270Z,-4.80
2023-02-09T18:13:05.337Z,-4.90
2023-02-09T18:15:40.557Z,-4.90
2023-02-09T18:18:14.183Z,-5.00
2023-02-09T18:20:48.413Z,-5.10
2023-02-09T18:23:23.244Z,-5.20
2023-02-09T18:25:58.300Z,-5.20
2023-02-09T18:28:32.161Z,-5.30
2023-02-09T18:31:06.524Z,-5.40
2023-02-09T18:33:40.469Z,-5.40
2023-02-09T18:36:15.545Z,-5.40
2023-02-09T18:38:51.015Z,-5.50
2023-02-09T18:41:26.148Z,-5.50
2023-02-09T18:44:02.589Z,-5.50
2023-02-09T18:46:36.482Z,-5.50
2023-02-09T18:49:13.233Z,-5.50
2023-02-09T18:51:46.955Z,-5.50
2023-02-09T18:54:20.758Z,-5.50
2023-02-09T18:56:55.988Z,-5.60
2023-02-09T18:59:30.794Z,-5.70
2023-02-09T19:02:04.606Z,-5.80
2023-02-09T19:04:42.311Z,-5.80
2023-02-09T19:07:17.089Z,-5.80
2023-02-09T19:09:51.023Z,-5.90
2023-02-09T19:12:28.452Z,-5.90
2023-02-09T19:15:02.724Z,-5.90
2023-02-09T19:17:37.255Z,-6.00
2023-02-09T19:20:17.624Z,-6.00
2023-02-09T19:22:52.647Z,-6.10
2023-02-09T19:25:29.198Z,-6.10
2023-02-09T19:28:07.878Z,-6.10
2023-02-09T19:30:43.586Z,-6.10
2023-02-09T19:33:19.434Z,-6.20
2023-02-09T19:36:00.502Z,-6.20
2023-02-09T19:38:35.627Z,-6.20
2023-02-09T19:41:15.057Z,-6.30
2023-02-09T19:43:51.664Z,-6.40
2023-02-09T19:46:26.455Z,-6.40
2023-02-09T19:49:01.070Z,-6.50
2023-02-09T19:51:34.931Z,-6.50
2023-02-09T19:54:09.108Z,-6.60
2023-02-09T19:56:45.344Z,-6.60
2023-02-09T19:59:20.421Z,-6.60
2023-02-09T20:01:54.144Z,-6.60
2023-02-09T20:04:27.963Z,-6.70
2023-02-09T20:07:03.667Z,-6.60
2023-02-09T20:09:37.684Z,-6.70
2023-02-09T20:12:11.482Z,-6.70
2023-02-09T20:14:46.613Z,-6.70
2023-02-09T20:17:20.458Z,-6.70
2023-02-09T20:19:54.112Z,-6.80
2023-02-09T20:22:28.318Z,-6.90
2023-02-09T20:25:01.869Z,-7.00
2023-02-09T20:27:35.640Z,-6.90
2023-02-09T20:30:11.982Z,-7.00
2023-02-09T20:32:45.595Z,-7.10
2023-02-09T20:35:19.438Z,-7.10
2023-02-09T20:37:53.907Z,-7.10
2023-02-09T20:40:27.565Z,-7.10
2023-02-09T20:43:18.308Z,-7.20
2023-02-09T20:46:10.480Z,-7.30
2023-02-09T20:48:44.372Z,-7.30
2023-02-09T20:51:18.878Z,-7.40
2023-02-09T20:53:52.516Z,-7.40
2023-02-09T20:56:26.410Z,-7.50
2023-02-09T20:59:00.963Z,-7.60
2023-02-09T21:01:37.776Z,-7.60
2023-02-09T21:04:11.491Z,-7.60
2023-02-09T21:06:45.557Z,-7.80
2023-02-09T21:09:19.282Z,-7.80
2023-02-09T21:11:53.253Z,-7.90
2023-02-09T21:14:40.075Z,-7.90
2023-02-09T21:17:16.531Z,-8.00
2023-02-09T21:19:50.361Z,-8.00
2023-02-09T21:22:24.346Z,-8.10
2023-02-09T21:24:58.036Z,-8.10
2023-02-09T21:27:32.941Z,-8.10
2023-02-09T21:30:07.551Z,-8.10
2023-02-09T21:32:42.759Z,-8.10
2023-02-09T21:35:17.272Z,-8.10
2023-02-09T21:37:50.919Z,-8.20
2023-02-09T21:40:24.913Z,-8.20
2023-02-09T21:42:58.519Z,-8.30
2023-02-09T21:45:32.293Z,-8.30
2023-02-09T21:48:09.192Z,-8.30
2023-02-09T21:50:43.072Z,-8.30
2023-02-09T21:53:16.737Z,-8.30
2023-02-09T21:55:50.333Z,-8.40
2023-02-09T21:58:24.073Z,-8.40
2023-02-09T22:00:58.733Z,-8.50
2023-02-09T22:03:34.313Z,-8.50
2023-02-09T22:06:08.581Z,-8.50
2023-02-09T22:08:42.546Z,-8.60
2023-02-09T22:11:16.175Z,-8.70
2023-02-09T22:13:49.759Z,-8.70
2023-02-09T22:16:25.022Z,-8.70
2023-02-09T22:19:00.657Z,-8.80
2023-02-09T22:21:34.262Z,-8.90
2023-02-09T22:24:08.025Z,-8.90
2023-02-09T22:26:42.012Z,-9.00
2023-02-09T22:29:16.944Z,-9.00
2023-02-09T22:31:50.739Z,-9.00
2023-02-09T22:34:25.819Z,-9.10
2023-02-09T22:36:59.560Z,-9.10
2023-02-09T22:39:33.291Z,-9.10
2023-02-09T22:42:07.244Z,-9.20
2023-02-09T22:44:40.780Z,-9.30
2023-02-09T22:47:14.360Z,-9.40
2023-02-09T22:49:49.333Z,-9.30
2023-02-09T22:52:23.098Z,-9.40
2023-02-09T22:54:57.984Z,-9.50
2023-02-09T22:57:31.580Z,-9.50
2023-02-09T23:00:07.733Z,-9.50
2023-02-09T23:02:41.318Z,-9.60
2023-02-09T23:05:16.379Z,-9.60
2023-02-09T23:07:49.925Z,-9.60
2023-02-09T23:10:23.720Z,-9.60
2023-02-09T23:12:57.299Z,-9.70
2023-02-09T23:15:30.991Z,-9.70
2023-02-09T23:18:04.631Z,-9.70
2023-02-09T23:20:39.560Z,-9.70
2023-02-09T23:23:13.048Z,-9.80
2023-02-09T23:25:46.858Z,-9.80
2023-02-09T23:28:20.635Z,-9.80
2023-02-09T23:30:54.245Z,-9.80
2023-02-09T23:33:27.817Z,-9.80
2023-02-09T23:36:05.885Z,-9.80
2023-02-09T23:38:39.603Z,-9.80
2023-02-09T23:41:16.551Z,-9.80
2023-02-09T23:43:50.719Z,-9.90
2023-02-09T23:46:28.328Z,-10.00
2023-02-09T23:49:02.164Z,-9.90
2023-02-09T23:51:37.278Z,-9.90
2023-02-09T23:54:12.246Z,-10.00
2023-02-09T23:56:46.736Z,-10.10
2023-02-09T23:59:20.219Z,-10.10
